Time;durP1;ratioP1;P1;durP2;ratioP2;P2;SDS_P1;SDS_P2;PMS_P1;PMS_P2;Temp;Humidity;BMP_temperature;BMP_pressure;BME280_temperature;BME280_humidity;BME280_pressure;Samples;Min_cycle;Max_cycle;Signal;HPM_P1;HPM_P2
2023/01/03 00:00:49;;;;;;;;;;;;;;;;;;1884106;28;7013;-64
2023/01/03 00:01:48;;;;;;;;;;;;;;;;;;1882773;28;7067;-63
2023/01/03 00:02:45;;;;;;;;;;;;;;;;;;1882512;28;7157;-64
2023/01/03 00:03:43;;;;;;;;;;;;;;;;;;1887025;28;7093;-64
2023/01/03 00:04:40;;;;;;;;;;;;;;;;;;1883411;28;7034;-64
2023/01/03 00:05:46;;;;;;;;;;;;;;;;;;1882341;28;7143;-64
2023/01/03 00:06:46;;;;;;;;;;;;;;;;;;1884423;28;7010;-64
2023/01/03 00:07:43;;;;;;;;;;;;;;;;;;1883001;28;7181;-64
2023/01/03 00:08:41;;;;;;;;;;;;;;;;;;1883181;28;7116;-64
2023/01/03 00:09:38;;;;;;;;;;;;;;;;;;1882766;28;7018;-64
2023/01/03 00:10:35;;;;;;;;;;;;;;;;;;1885715;28;7018;-64
2023/01/03 00:12:48;;;;;;;;;;;;;;;;;;1882901;28;7125;-64
2023/01/03 00:13:46;;;;;;;;;;;;;;;;;;1881753;28;7089;-64
2023/01/03 00:14:43;;;;;;;;;;;;;;;;;;1885637;28;7058;-63
2023/01/03 00:15:41;;;;;;;;;;;;;;;;;;1888780;28;7046;-63
2023/01/03 00:16:39;;;;;;;;;;;;;;;;;;1888114;28;7014;-64
2023/01/03 00:17:36;;;;;;;;;;;;;;;;;;1884623;28;7104;-64
2023/01/03 00:18:34;;;;;;;;;;;;;;;;;;1882140;28;7092;-64
2023/01/03 00:19:33;;;;;;;;;;;;;;;;;;1889272;28;7062;-64
2023/01/03 00:20:32;;;;;;;;;;;;;;;;;;1890096;28;8008;-64
2023/01/03 00:21:29;;;;;;;;;;;;;;;;;;1889583;28;7431;-64
2023/01/03 00:22:30;;;;;;;;;;;;;;;;;;1883556;28;8052;-63
2023/01/03 00:23:27;;;;;;;;;;;;;;;;;;1875473;28;7029;-64
2023/01/03 00:24:24;;;;;;;;;;;;;;;;;;1869475;28;7010;-64
2023/01/03 00:25:22;;;;;;;;;;;;;;;;;;1873718;28;7097;-64
2023/01/03 00:26:19;;;;;;;;;;;;;;;;;;1884714;28;7089;-65
2023/01/03 00:27:16;;;;;;;;;;;;;;;;;;1885743;28;7206;-64
2023/01/03 00:28:14;;;;;;;;;;;;;;;;;;1886800;28;7009;-63
2023/01/03 00:29:12;;;;;;;;;;;;;;;;;;1884547;28;7100;-64
2023/01/03 00:30:09;;;;;;;;;;;;;;;;;;1882841;28;7514;-64
2023/01/03 00:31:08;;;;;;;;;;;;;;;;;;1883824;28;7097;-64
2023/01/03 00:32:06;;;;;;;;;;;;;;;;;;1882127;28;7018;-64
2023/01/03 00:33:03;;;;;;;;;;;;;;;;;;1884954;28;7018;-65
2023/01/03 00:34:01;;;;;;;;;;;;;;;;;;1884462;28;7629;-64
2023/01/03 00:34:58;;;;;;;;;;;;;;;;;;1882489;28;7134;-64
2023/01/03 00:36:02;;;;;;;;;;;;;;;;;;1885420;28;7018;-65
2023/01/03 00:37:00;;;;;;;;;;;;;;;;;;1882317;28;7013;-64
2023/01/03 00:37:58;;;;;;;;;;;;;;;;;;1885563;28;7105;-65
2023/01/03 00:38:55;;;;;;;;;;;;;;;;;;1884033;28;7018;-64
2023/01/03 00:39:53;;;;;;;;;;;;;;;;;;1882587;28;7140;-64
2023/01/03 00:40:50;;;;;;;;;;;;;;;;;;1878199;28;7729;-64
2023/01/03 00:41:47;;;;;;;;;;;;;;;;;;1876660;28;7029;-64
2023/01/03 00:44:01;;;;;;;;;;;;;;;;;;1874573;28;7158;-65
2023/01/03 00:45:00;;;;;;;;;;;;;;;;;;1867958;28;7104;-64
2023/01/03 00:45:58;;;;;;;;;;;;;;;;;;1867193;29;7047;-64
2023/01/03 00:46:55;;;;;;;;;;;;;;;;;;1874288;28;7999;-64
2023/01/03 00:47:53;;;;;;;;;;;;;;;;;;1874841;28;7043;-65
2023/01/03 00:48:50;;;;;;;;;;;;;;;;;;1874956;28;7131;-65
2023/01/03 00:49:47;;;;;;;;;;;;;;;;;;1875021;28;7206;-65
2023/01/03 00:50:45;;;;;;;;;;;;;;;;;;1875218;28;7547;-64
2023/01/03 00:51:42;;;;;;;;;;;;;;;;;;1874934;28;7026;-64
2023/01/03 00:52:40;;;;;;;;;;;;;;;;;;1874789;28;8039;-64
2023/01/03 00:53:38;;;;;;;;;;;;;;;;;;1874929;28;7092;-64
2023/01/03 00:54:36;;;;;;;;;;;;;;;;;;1874530;28;7094;-64
2023/01/03 00:55:33;;;;;;;;;;;;;;;;;;1874837;28;8512;-65
2023/01/03 00:56:33;;;;;;;;;;;;;;;;;;1874724;28;7129;-64
2023/01/03 00:57:30;;;;;;;;;;;;;;;;;;1875100;28;7009;-64
2023/01/03 00:58:31;;;;;;;;;;;;;;;;;;1874695;28;7042;-64
2023/01/03 00:59:28;;;;;;;;;;;;;;;;;;1875144;28;7046;-65
2023/01/03 01:00:26;;;;;;;;;;;;;;;;;;1875042;28;7120;-64
2023/01/03 01:01:23;;;;;;;;;;;;;;;;;;1874579;28;7456;-64
2023/01/03 01:02:21;;;;;;;;;;;;;;;;;;1873979;28;7005;-64
2023/01/03 01:03:18;;;;;;;;;;;;;;;;;;1874707;28;7006;-64
2023/01/03 01:04:25;;;;;;;;;;;;;;;;;;1870269;28;7014;-65
2023/01/03 01:05:22;;;;;;;;;;;;;;;;;;1870035;28;7329;-64
2023/01/03 01:06:24;;;;;;;;;;;;;;;;;;1875449;28;7092;-64
2023/01/03 01:07:22;;;;;;;;;;;;;;;;;;1874665;28;7010;-64
2023/01/03 01:08:19;;;;;;;;;;;;;;;;;;1874657;28;7142;-64
2023/01/03 01:09:24;;;;;;;;;;;;;;;;;;1874838;28;7002;-65
2023/01/03 01:10:22;;;;;;;;;;;;;;;;;;1874731;28;7065;-64
2023/01/03 01:11:20;;;;;;;;;;;;;;;;;;1873804;28;7018;-64
2023/01/03 01:12:17;;;;;;;;;;;;;;;;;;1873624;28;7131;-65
2023/01/03 01:13:15;;;;;;;;;;;;;;;;;;1873606;28;7010;-63
2023/01/03 01:14:20;;;;;;;;;;;;;;;;;;1875123;28;8071;-64
2023/01/03 01:15:17;;;;;;;;;;;;;;;;;;1874709;28;7006;-65
2023/01/03 01:16:16;;;;;;;;;;;;;;;;;;1874936;28;7034;-64
2023/01/03 01:17:14;;;;;;;;;;;;;;;;;;1874398;28;7066;-63
2023/01/03 01:18:18;;;;;;;;;;;;;;;;;;1874494;28;8051;-64
2023/01/03 01:19:17;;;;;;;;;;;;;;;;;;1875127;28;8773;-64
2023/01/03 01:20:16;;;;;;;;;;;;;;;;;;1874478;28;7026;-64
2023/01/03 01:21:15;;;;;;;;;;;;;;;;;;1874259;28;7018;-64
2023/01/03 01:22:12;;;;;;;;;;;;;;;;;;1874069;28;7018;-64
2023/01/03 01:23:10;;;;;;;;;;;;;;;;;;1874137;28;7129;-64
2023/01/03 01:24:07;;;;;;;;;;;;;;;;;;1874869;28;7046;-64
2023/01/03 01:25:12;;;;;;;;;;;;;;;;;;1874103;28;7117;-64
2023/01/03 01:26:11;;;;;;;;;;;;;;;;;;1874814;28;7017;-63
2023/01/03 01:27:08;;;;;;;;;;;;;;;;;;1874786;28;7181;-64
2023/01/03 01:28:05;;;;;;;;;;;;;;;;;;1874796;28;7009;-64
2023/01/03 01:29:03;;;;;;;;;;;;;;;;;;1874838;28;7125;-64
2023/01/03 01:30:00;;;;;;;;;;;;;;;;;;1874878;28;7137;-64
2023/01/03 01:30:58;;;;;;;;;;;;;;;;;;1874792;28;7184;-64
2023/01/03 01:31:55;;;;;;;;;;;;;;;;;;1874595;28;7042;-64
2023/01/03 01:32:53;;;;;;;;;;;;;;;;;;1874827;28;7042;-63
2023/01/03 01:33:51;;;;;;;;;;;;;;;;;;1872880;28;7042;-64
2023/01/03 01:34:49;;;;;;;;;;;;;;;;;;1874118;28;7113;-65
2023/01/03 01:35:46;;;;;;;;;;;;;;;;;;1874934;28;7042;-64
2023/01/03 01:36:45;;;;;;;;;;;;;;;;;;1874704;28;7089;-64
2023/01/03 01:37:42;;;;;;;;;;;;;;;;;;1875224;28;7021;-65
2023/01/03 01:38:39;;;;;;;;;;;;;;;;;;1874764;28;7957;-65
2023/01/03 01:39:37;;;;;;;;;;;;;;;;;;1872808;28;8078;-65
2023/01/03 01:40:34;;;;;;;;;;;;;;;;;;1874431;28;7964;-65
2023/01/03 01:45:22;;;;;;;;;;;;;;;;;;1873128;28;7097;-65
2023/01/03 01:46:20;;;;;;;;;;;;;;;;;;1873781;28;7242;-63
2023/01/03 01:47:26;;;;;;;;;;;;;;;;;;1874656;28;7097;-64
2023/01/03 01:48:24;;;;;;;;;;;;;;;;;;1874701;28;7042;-65
2023/01/03 01:49:24;;;;;;;;;;;;;;;;;;1866846;28;7010;-64
2023/01/03 01:50:24;;;;;;;;;;;;;;;;;;1869177;28;8029;-64
2023/01/03 01:51:23;;;;;;;;;;;;;;;;;;1870835;28;7130;-64
2023/01/03 01:52:21;;;;;;;;;;;;;;;;;;1871088;28;7149;-64
2023/01/03 01:53:26;;;;;;;;;;;;;;;;;;1873141;28;7043;-64
2023/01/03 01:54:24;;;;;;;;;;;;;;;;;;1874801;28;7010;-63
2023/01/03 01:55:25;;;;;;;;;;;;;;;;;;1874345;28;7139;-65
2023/01/03 01:56:25;;;;;;;;;;;;;;;;;;1874494;28;7014;-64
2023/01/03 01:57:24;;;;;;;;;;;;;;;;;;1874778;28;7058;-65
2023/01/03 01:58:25;;;;;;;;;;;;;;;;;;1874600;28;8025;-64
2023/01/03 01:59:23;;;;;;;;;;;;;;;;;;1874804;28;7041;-64
2023/01/03 02:00:20;;;;;;;;;;;;;;;;;;1874579;28;7006;-65
2023/01/03 02:01:19;;;;;;;;;;;;;;;;;;1874268;28;7092;-64
2023/01/03 02:02:19;;;;;;;;;;;;;;;;;;1874074;28;7017;-65
2023/01/03 02:03:17;;;;;;;;;;;;;;;;;;1874659;28;7030;-64
2023/01/03 02:04:21;;;;;;;;;;;;;;;;;;1874194;28;7146;-64
2023/01/03 02:05:19;;;;;;;;;;;;;;;;;;1874442;28;7014;-64
2023/01/03 02:06:17;;;;;;;;;;;;;;;;;;1874623;28;9007;-64
2023/01/03 02:07:17;;;;;;;;;;;;;;;;;;1876014;28;7113;-65
2023/01/03 02:08:14;;;;;;;;;;;;;;;;;;1875167;28;7325;-64
2023/01/03 02:09:12;;;;;;;;;;;;;;;;;;1874523;28;7017;-64
2023/01/03 02:10:09;;;;;;;;;;;;;;;;;;1869044;28;7010;-64
2023/01/03 02:11:06;;;;;;;;;;;;;;;;;;1866795;28;7045;-65
2023/01/03 02:13:35;;;;;;;;;;;;;;;;;;1874780;28;7088;-64
2023/01/03 02:14:45;;;;;;;;;;;;;;;;;;1875621;28;7320;-65
2023/01/03 02:16:01;;;;;;;;;;;;;;;;;;1874594;28;7237;-64
2023/01/03 02:16:59;;;;;;;;;;;;;;;;;;1873567;28;7005;-64
2023/01/03 02:18:14;;;;;;;;;;;;;;;;;;1874471;28;7006;-64
2023/01/03 02:19:30;;;;;;;;;;;;;;;;;;1875005;28;7122;-64
2023/01/03 02:20:40;;;;;;;;;;;;;;;;;;1875458;28;7006;-65
2023/01/03 02:21:56;;;;;;;;;;;;;;;;;;1873579;28;7356;-64
2023/01/03 02:22:56;;;;;;;;;;;;;;;;;;1875234;28;7014;-64
2023/01/03 02:24:06;;;;;;;;;;;;;;;;;;1868046;28;7006;-64
2023/01/03 02:25:06;;;;;;;;;;;;;;;;;;1868513;28;7120;-64
2023/01/03 02:26:12;;;;;;;;;;;;;;;;;;1876080;28;7006;-65
2023/01/03 02:27:12;;;;;;;;;;;;;;;;;;1874244;28;7006;-63
2023/01/03 02:28:24;;;;;;;;;;;;;;;;;;1874209;28;7257;-63
2023/01/03 02:29:22;;;;;;;;;;;;;;;;;;1874647;28;8069;-64
2023/01/03 02:30:34;;;;;;;;;;;;;;;;;;1873298;28;7066;-64
2023/01/03 02:31:32;;;;;;;;;;;;;;;;;;1875334;28;7986;-64
2023/01/03 02:32:33;;;;;;;;;;;;;;;;;;1874727;28;7088;-64
2023/01/03 02:33:49;;;;;;;;;;;;;;;;;;1875452;28;7994;-64
2023/01/03 02:35:03;;;;;;;;;;;;;;;;;;1875127;28;7155;-64
2023/01/03 02:36:30;;;;;;;;;;;;;;;;;;1874480;28;8047;-64
2023/01/03 02:37:30;;;;;;;;;;;;;;;;;;1858143;29;8111;-64
2023/01/03 02:38:27;;;;;;;;;;;;;;;;;;1869260;29;7093;-64
2023/01/03 02:39:47;;;;;;;;;;;;;;;;;;1871704;29;7026;-64
2023/01/03 02:40:54;;;;;;;;;;;;;;;;;;1866460;29;7097;-65
2023/01/03 02:42:56;;;;;;;;;;;;;;;;;;1867802;28;7018;-64
2023/01/03 02:43:20;;;;;;;;;;;;;;;;;;1876294;28;7038;-64
2023/01/03 02:44:35;;;;;;;;;;;;;;;;;;1882847;28;7118;-65
2023/01/03 02:45:51;;;;;;;;;;;;;;;;;;1881171;28;7362;-64
2023/01/03 02:46:53;;;;;;;;;;;;;;;;;;1881629;28;7017;-64
2023/01/03 02:47:55;;;;;;;;;;;;;;;;;;1880413;28;7013;-64
2023/01/03 02:48:58;;;;;;;;;;;;;;;;;;1874838;28;7013;-64
2023/01/03 02:49:59;;;;;;;;;;;;;;;;;;1874457;28;7018;-64
2023/01/03 02:51:01;;;;;;;;;;;;;;;;;;1880955;28;7105;-63
2023/01/03 02:52:10;;;;;;;;;;;;;;;;;;1883090;28;7101;-63
2023/01/03 02:53:09;;;;;;;;;;;;;;;;;;1882140;28;7050;-64
2023/01/03 02:54:10;;;;;;;;;;;;;;;;;;1881441;28;9356;-64
2023/01/03 02:55:21;;;;;;;;;;;;;;;;;;1881143;28;7556;-64
2023/01/03 02:56:23;;;;;;;;;;;;;;;;;;1881366;28;7006;-64
2023/01/03 02:57:47;;;;;;;;;;;;;;;;;;1881066;28;7010;-64
2023/01/03 02:58:49;;;;;;;;;;;;;;;;;;1872331;28;7093;-64
2023/01/03 02:59:50;;;;;;;;;;;;;;;;;;1874637;28;7006;-64
2023/01/03 03:00:51;;;;;;;;;;;;;;;;;;1881408;28;7120;-64
2023/01/03 03:01:51;;;;;;;;;;;;;;;;;;1882842;28;9039;-64
2023/01/03 03:02:52;;;;;;;;;;;;;;;;;;1882878;28;7014;-64
2023/01/03 03:03:49;;;;;;;;;;;;;;;;;;1882648;28;7092;-65
2023/01/03 03:04:51;;;;;;;;;;;;;;;;;;1881497;28;7093;-64
2023/01/03 03:05:56;;;;;;;;;;;;;;;;;;1881766;28;7108;-64
2023/01/03 03:07:04;;;;;;;;;;;;;;;;;;1881333;28;7006;-64
2023/01/03 03:08:02;;;;;;;;;;;;;;;;;;1882397;28;7038;-64
2023/01/03 03:08:59;;;;;;;;;;;;;;;;;;1882046;28;7006;-64
2023/01/03 03:13:48;;;;;;;;;;;;;;;;;;1881720;28;7010;-64
2023/01/03 03:14:49;;;;;;;;;;;;;;;;;;1882965;28;8893;-64
2023/01/03 03:15:52;;;;;;;;;;;;;;;;;;1884072;28;7954;-64
2023/01/03 03:16:52;;;;;;;;;;;;;;;;;;1880829;28;7125;-64
2023/01/03 03:17:54;;;;;;;;;;;;;;;;;;1882034;28;8230;-64
2023/01/03 03:18:58;;;;;;;;;;;;;;;;;;1882518;28;8036;-64
2023/01/03 03:25:26;;;;;;;;;;;;;;;;;;1881786;28;7010;-63
2023/01/03 03:26:33;;;;;;;;;;;;;;;;;;1882550;28;7009;-64
2023/01/03 03:28:54;;;;;;;;;;;;;;;;;;1882491;28;7018;-64
2023/01/03 03:29:54;;;;;;;;;;;;;;;;;;1884849;28;8007;-64
2023/01/03 03:30:56;;;;;;;;;;;;;;;;;;1882588;28;7009;-64
2023/01/03 03:31:54;;;;;;;;;;;;;;;;;;1882504;28;7038;-63
2023/01/03 03:32:57;;;;;;;;;;;;;;;;;;1882693;28;7050;-63
2023/01/03 03:34:13;;;;;;;;;;;;;;;;;;1882919;28;7010;-64
2023/01/03 03:35:14;;;;;;;;;;;;;;;;;;1882984;28;7139;-64
2023/01/03 03:36:19;;;;;;;;;;;;;;;;;;1882635;28;8054;-64
2023/01/03 03:37:20;;;;;;;;;;;;;;;;;;1882736;28;7037;-64
2023/01/03 03:38:23;;;;;;;;;;;;;;;;;;1883400;28;7010;-64
2023/01/03 03:44:59;;;;;;;;;;;;;;;;;;1865186;28;7120;-64
2023/01/03 03:45:37;;;;;;;;;;;;;;;;;;1883573;28;7006;-64
2023/01/03 03:46:41;;;;;;;;;;;;;;;;;;1883747;28;7006;-64
2023/01/03 03:47:52;;;;;;;;;;;;;;;;;;1882601;28;7010;-64
2023/01/03 03:50:26;;;;;;;;;;;;;;;;;;1882271;28;7152;-64
2023/01/03 03:51:28;;;;;;;;;;;;;;;;;;1882534;28;8027;-64
2023/01/03 03:52:29;;;;;;;;;;;;;;;;;;1881915;28;7377;-64
2023/01/03 03:53:31;;;;;;;;;;;;;;;;;;1882296;28;7089;-63
2023/01/03 03:54:33;;;;;;;;;;;;;;;;;;1883662;28;7010;-64
2023/01/03 03:55:39;;;;;;;;;;;;;;;;;;1884480;28;7001;-64
2023/01/03 03:56:40;;;;;;;;;;;;;;;;;;1882889;28;7228;-65
2023/01/03 03:57:44;;;;;;;;;;;;;;;;;;1882598;28;7131;-63
2023/01/03 03:58:43;;;;;;;;;;;;;;;;;;1883999;28;7046;-63
2023/01/03 03:59:45;;;;;;;;;;;;;;;;;;1883251;28;7494;-64
2023/01/03 04:00:45;;;;;;;;;;;;;;;;;;1882158;28;7104;-64
2023/01/03 04:01:46;;;;;;;;;;;;;;;;;;1882114;28;7088;-64
2023/01/03 04:02:48;;;;;;;;;;;;;;;;;;1880665;28;7006;-64
2023/01/03 04:03:47;;;;;;;;;;;;;;;;;;1881906;28;7113;-64
2023/01/03 04:04:48;;;;;;;;;;;;;;;;;;1882043;28;7068;-64
2023/01/03 04:05:50;;;;;;;;;;;;;;;;;;1882598;28;7116;-64
2023/01/03 04:06:50;;;;;;;;;;;;;;;;;;1882219;28;8043;-63
2023/01/03 04:07:48;;;;;;;;;;;;;;;;;;1880878;28;7125;-65
2023/01/03 04:08:46;;;;;;;;;;;;;;;;;;1881727;28;7017;-64
2023/01/03 04:09:43;;;;;;;;;;;;;;;;;;1882514;28;7017;-64
2023/01/03 04:10:41;;;;;;;;;;;;;;;;;;1882634;28;8040;-64
2023/01/03 04:11:38;;;;;;;;;;;;;;;;;;1882411;28;8129;-64
2023/01/03 04:12:36;;;;;;;;;;;;;;;;;;1882573;28;8970;-63
2023/01/03 04:13:35;;;;;;;;;;;;;;;;;;1882306;28;7010;-65
2023/01/03 04:14:32;;;;;;;;;;;;;;;;;;1880843;28;8032;-64
2023/01/03 04:15:30;;;;;;;;;;;;;;;;;;1882496;28;7006;-65
2023/01/03 04:16:27;;;;;;;;;;;;;;;;;;1883233;28;7018;-64
2023/01/03 04:17:24;;;;;;;;;;;;;;;;;;1882864;28;7031;-64
2023/01/03 04:18:22;;;;;;;;;;;;;;;;;;1881402;28;8159;-64
2023/01/03 04:19:19;;;;;;;;;;;;;;;;;;1880675;28;7006;-63
2023/01/03 04:20:18;;;;;;;;;;;;;;;;;;1882562;28;7153;-65
2023/01/03 04:21:15;;;;;;;;;;;;;;;;;;1882130;28;7006;-64
2023/01/03 04:22:17;;;;;;;;;;;;;;;;;;1882449;28;7368;-64
2023/01/03 04:23:14;;;;;;;;;;;;;;;;;;1882631;28;7152;-64
2023/01/03 04:24:12;;;;;;;;;;;;;;;;;;1882749;28;8355;-64
2023/01/03 04:25:09;;;;;;;;;;;;;;;;;;1876372;28;7105;-64
2023/01/03 04:26:06;;;;;;;;;;;;;;;;;;1875441;28;7085;-64
2023/01/03 04:27:04;;;;;;;;;;;;;;;;;;1881310;28;7320;-64
2023/01/03 04:28:01;;;;;;;;;;;;;;;;;;1882115;28;7037;-65
2023/01/03 04:28:59;;;;;;;;;;;;;;;;;;1882107;28;7140;-64
2023/01/03 04:29:56;;;;;;;;;;;;;;;;;;1882026;28;7046;-64
2023/01/03 04:30:54;;;;;;;;;;;;;;;;;;1882792;28;7054;-64
2023/01/03 04:31:51;;;;;;;;;;;;;;;;;;1882193;28;7010;-65
2023/01/03 04:32:48;;;;;;;;;;;;;;;;;;1882376;28;7010;-64
2023/01/03 04:33:46;;;;;;;;;;;;;;;;;;1882098;28;7009;-64
2023/01/03 04:34:43;;;;;;;;;;;;;;;;;;1882317;28;7615;-64
2023/01/03 04:35:41;;;;;;;;;;;;;;;;;;1882477;28;7089;-64
2023/01/03 04:36:38;;;;;;;;;;;;;;;;;;1880888;28;7109;-64
2023/01/03 04:37:36;;;;;;;;;;;;;;;;;;1882902;28;7030;-64
2023/01/03 04:38:33;;;;;;;;;;;;;;;;;;1882766;28;8020;-64
2023/01/03 04:39:30;;;;;;;;;;;;;;;;;;1882288;28;7191;-64
2023/01/03 04:40:28;;;;;;;;;;;;;;;;;;1882219;28;7002;-64
2023/01/03 04:41:25;;;;;;;;;;;;;;;;;;1882136;28;7005;-66
2023/01/03 04:44:54;;;;;;;;;;;;;;;;;;1883679;28;7006;-65
2023/01/03 04:45:51;;;;;;;;;;;;;;;;;;1883872;28;7006;-64
2023/01/03 04:46:49;;;;;;;;;;;;;;;;;;1882203;28;7006;-64
2023/01/03 04:47:49;;;;;;;;;;;;;;;;;;1886252;28;7010;-65
2023/01/03 04:48:46;;;;;;;;;;;;;;;;;;1885529;28;7096;-65
2023/01/03 04:49:45;;;;;;;;;;;;;;;;;;1883652;28;7010;-64
2023/01/03 04:50:52;;;;;;;;;;;;;;;;;;1885104;28;7148;-65
2023/01/03 04:51:49;;;;;;;;;;;;;;;;;;1885746;28;7089;-64
2023/01/03 04:52:47;;;;;;;;;;;;;;;;;;1884410;28;7006;-64
2023/01/03 04:53:44;;;;;;;;;;;;;;;;;;1883052;28;8011;-64
2023/01/03 04:54:42;;;;;;;;;;;;;;;;;;1885984;28;7970;-64
2023/01/03 04:55:44;;;;;;;;;;;;;;;;;;1881729;28;7144;-64
2023/01/03 04:56:42;;;;;;;;;;;;;;;;;;1887158;28;7097;-64
2023/01/03 04:57:39;;;;;;;;;;;;;;;;;;1885161;28;8036;-65
2023/01/03 04:58:36;;;;;;;;;;;;;;;;;;1885349;28;7006;-64
2023/01/03 04:59:35;;;;;;;;;;;;;;;;;;1885083;28;7038;-63
2023/01/03 05:00:32;;;;;;;;;;;;;;;;;;1882756;28;8198;-64
2023/01/03 05:01:30;;;;;;;;;;;;;;;;;;1886154;28;7006;-65
2023/01/03 05:02:27;;;;;;;;;;;;;;;;;;1885920;28;7010;-64
2023/01/03 05:03:25;;;;;;;;;;;;;;;;;;1880994;28;7038;-64
2023/01/03 05:04:24;;;;;;;;;;;;;;;;;;1883720;28;7149;-64
2023/01/03 05:05:21;;;;;;;;;;;;;;;;;;1882674;28;7106;-65
2023/01/03 05:06:19;;;;;;;;;;;;;;;;;;1883889;28;7002;-64
2023/01/03 05:07:16;;;;;;;;;;;;;;;;;;1883973;28;7401;-65
2023/01/03 05:08:13;;;;;;;;;;;;;;;;;;1883730;28;8034;-65
2023/01/03 05:09:11;;;;;;;;;;;;;;;;;;1883929;28;7088;-64
2023/01/03 05:10:08;;;;;;;;;;;;;;;;;;1885335;28;8141;-64
2023/01/03 05:11:06;;;;;;;;;;;;;;;;;;1886381;28;7005;-65
2023/01/03 05:12:04;;;;;;;;;;;;;;;;;;1883175;28;7153;-64
2023/01/03 05:13:01;;;;;;;;;;;;;;;;;;1883435;28;7085;-64
2023/01/03 05:13:58;;;;;;;;;;;;;;;;;;1883552;28;7145;-64
2023/01/03 05:14:56;;;;;;;;;;;;;;;;;;1885015;28;8123;-65
2023/01/03 05:15:53;;;;;;;;;;;;;;;;;;1884075;28;8249;-65
2023/01/03 05:16:51;;;;;;;;;;;;;;;;;;1884849;28;7145;-64
2023/01/03 05:17:48;;;;;;;;;;;;;;;;;;1882584;28;8099;-65
2023/01/03 05:18:47;;;;;;;;;;;;;;;;;;1886595;28;7006;-63
2023/01/03 05:26:17;;;;;;;;;;;;;;;;;;1882469;28;7134;-64
2023/01/03 05:27:14;;;;;;;;;;;;;;;;;;1882693;28;7078;-64
2023/01/03 05:28:12;;;;;;;;;;;;;;;;;;1882209;28;7396;-63
2023/01/03 05:29:16;;;;;;;;;;;;;;;;;;1882163;28;7348;-64
2023/01/03 05:30:14;;;;;;;;;;;;;;;;;;1884017;28;7038;-64
2023/01/03 05:31:11;;;;;;;;;;;;;;;;;;1886592;28;7313;-64
2023/01/03 05:32:09;;;;;;;;;;;;;;;;;;1886132;28;7022;-64
2023/01/03 05:33:06;;;;;;;;;;;;;;;;;;1885228;28;7744;-63
2023/01/03 05:34:03;;;;;;;;;;;;;;;;;;1884657;28;7990;-65
2023/01/03 05:35:01;;;;;;;;;;;;;;;;;;1884733;28;7092;-64
2023/01/03 05:35:58;;;;;;;;;;;;;;;;;;1881693;28;7054;-65
2023/01/03 05:36:55;;;;;;;;;;;;;;;;;;1881711;28;7002;-65
2023/01/03 05:37:53;;;;;;;;;;;;;;;;;;1883660;28;8270;-64
2023/01/03 05:38:50;;;;;;;;;;;;;;;;;;1885872;28;7062;-63
2023/01/03 05:39:48;;;;;;;;;;;;;;;;;;1883270;28;7093;-64
2023/01/03 05:40:45;;;;;;;;;;;;;;;;;;1883098;28;7092;-64
2023/01/03 05:42:00;;;;;;;;;;;;;;;;;;1882136;28;7006;-63
2023/01/03 05:42:58;;;;;;;;;;;;;;;;;;1886387;28;7050;-64
2023/01/03 05:43:55;;;;;;;;;;;;;;;;;;1881953;28;7369;-64
2023/01/03 05:44:53;;;;;;;;;;;;;;;;;;1881750;28;8033;-63
2023/01/03 05:45:51;;;;;;;;;;;;;;;;;;1881959;28;7006;-64
2023/01/03 05:46:49;;;;;;;;;;;;;;;;;;1881839;28;8020;-64
2023/01/03 05:47:47;;;;;;;;;;;;;;;;;;1881966;28;7081;-65
2023/01/03 05:48:44;;;;;;;;;;;;;;;;;;1881794;28;7010;-64
2023/01/03 05:49:41;;;;;;;;;;;;;;;;;;1882129;28;7014;-63
2023/01/03 05:50:39;;;;;;;;;;;;;;;;;;1882318;28;7010;-64
2023/01/03 05:51:36;;;;;;;;;;;;;;;;;;1882495;28;8038;-65
2023/01/03 05:52:33;;;;;;;;;;;;;;;;;;1882420;28;7101;-64
2023/01/03 05:53:31;;;;;;;;;;;;;;;;;;1882567;28;8045;-63
2023/01/03 05:54:28;;;;;;;;;;;;;;;;;;1882220;28;7155;-64
2023/01/03 05:55:25;;;;;;;;;;;;;;;;;;1880858;28;8027;-64
2023/01/03 05:56:23;;;;;;;;;;;;;;;;;;1881100;28;7332;-65
2023/01/03 05:57:20;;;;;;;;;;;;;;;;;;1881976;28;7005;-63
2023/01/03 05:58:18;;;;;;;;;;;;;;;;;;1881691;28;8049;-65
2023/01/03 05:59:17;;;;;;;;;;;;;;;;;;1881059;28;7009;-64
2023/01/03 06:00:14;;;;;;;;;;;;;;;;;;1882496;28;7010;-65
2023/01/03 06:01:13;;;;;;;;;;;;;;;;;;1881797;28;7196;-64
2023/01/03 06:02:10;;;;;;;;;;;;;;;;;;1882123;28;7146;-64
2023/01/03 06:03:08;;;;;;;;;;;;;;;;;;1882246;28;7120;-64
2023/01/03 06:04:06;;;;;;;;;;;;;;;;;;1881796;28;7009;-65
2023/01/03 06:05:04;;;;;;;;;;;;;;;;;;1881687;28;7106;-64
2023/01/03 06:06:05;;;;;;;;;;;;;;;;;;1881868;28;7010;-64
2023/01/03 06:07:03;;;;;;;;;;;;;;;;;;1880721;28;8063;-64
2023/01/03 06:08:01;;;;;;;;;;;;;;;;;;1882684;28;8114;-65
2023/01/03 06:08:58;;;;;;;;;;;;;;;;;;1881419;28;7934;-64
2023/01/03 06:09:56;;;;;;;;;;;;;;;;;;1881134;28;8058;-65
2023/01/03 06:10:53;;;;;;;;;;;;;;;;;;1881073;28;7125;-63
2023/01/03 06:11:51;;;;;;;;;;;;;;;;;;1882023;28;7014;-65
2023/01/03 06:12:48;;;;;;;;;;;;;;;;;;1882296;28;7137;-64
2023/01/03 06:13:45;;;;;;;;;;;;;;;;;;1881849;28;7018;-64
2023/01/03 06:14:43;;;;;;;;;;;;;;;;;;1881874;28;7173;-64
2023/01/03 06:15:40;;;;;;;;;;;;;;;;;;1881664;28;7328;-64
2023/01/03 06:17:53;;;;;;;;;;;;;;;;;;1880791;28;7006;-64
2023/01/03 06:18:50;;;;;;;;;;;;;;;;;;1881842;28;7992;-64
2023/01/03 06:19:48;;;;;;;;;;;;;;;;;;1880666;28;7101;-64
2023/01/03 06:20:45;;;;;;;;;;;;;;;;;;1882369;28;7017;-64
2023/01/03 06:21:43;;;;;;;;;;;;;;;;;;1882273;28;7096;-64
2023/01/03 06:22:40;;;;;;;;;;;;;;;;;;1881631;28;7030;-64
2023/01/03 06:23:37;;;;;;;;;;;;;;;;;;1882019;28;7010;-65
2023/01/03 06:24:35;;;;;;;;;;;;;;;;;;1881427;28;7046;-64
2023/01/03 06:25:32;;;;;;;;;;;;;;;;;;1881695;28;7097;-64
2023/01/03 06:26:29;;;;;;;;;;;;;;;;;;1881628;28;7031;-64
2023/01/03 06:27:27;;;;;;;;;;;;;;;;;;1881796;28;7045;-64
2023/01/03 06:28:24;;;;;;;;;;;;;;;;;;1881607;28;7096;-64
2023/01/03 06:29:22;;;;;;;;;;;;;;;;;;1881038;28;8107;-64
2023/01/03 06:30:19;;;;;;;;;;;;;;;;;;1881707;28;8048;-65
2023/01/03 06:31:17;;;;;;;;;;;;;;;;;;1881459;28;7042;-63
2023/01/03 06:32:15;;;;;;;;;;;;;;;;;;1882341;28;7120;-64
2023/01/03 06:33:12;;;;;;;;;;;;;;;;;;1881581;28;7049;-64
2023/01/03 06:34:10;;;;;;;;;;;;;;;;;;1881393;28;8071;-64
2023/01/03 06:35:07;;;;;;;;;;;;;;;;;;1880337;28;7114;-65
2023/01/03 06:36:06;;;;;;;;;;;;;;;;;;1881822;28;7021;-64
2023/01/03 06:37:04;;;;;;;;;;;;;;;;;;1881335;28;7293;-64
2023/01/03 06:38:01;;;;;;;;;;;;;;;;;;1880989;28;7116;-64
2023/01/03 06:38:59;;;;;;;;;;;;;;;;;;1880449;28;8110;-64
2023/01/03 06:39:57;;;;;;;;;;;;;;;;;;1880986;28;7002;-64
2023/01/03 06:40:54;;;;;;;;;;;;;;;;;;1881265;28;7022;-65
2023/01/03 06:41:51;;;;;;;;;;;;;;;;;;1881590;28;7006;-64
2023/01/03 06:42:49;;;;;;;;;;;;;;;;;;1881498;28;7093;-65
2023/01/03 06:43:46;;;;;;;;;;;;;;;;;;1881985;28;7120;-64
2023/01/03 06:44:43;;;;;;;;;;;;;;;;;;1881590;28;8158;-65
2023/01/03 06:53:35;;;;;;;;;;;;;;;;;;1880579;28;7025;-64
2023/01/03 06:54:35;;;;;;;;;;;;;;;;;;1881234;28;8271;-64
2023/01/03 06:55:32;;;;;;;;;;;;;;;;;;1879626;28;7006;-64
2023/01/03 06:56:29;;;;;;;;;;;;;;;;;;1881333;28;7985;-63
2023/01/03 06:57:27;;;;;;;;;;;;;;;;;;1881408;28;8068;-64
2023/01/03 06:58:25;;;;;;;;;;;;;;;;;;1881842;28;7140;-64
2023/01/03 06:59:23;;;;;;;;;;;;;;;;;;1882147;28;7958;-65
2023/01/03 07:00:20;;;;;;;;;;;;;;;;;;1882708;28;8104;-64
2023/01/03 07:01:18;;;;;;;;;;;;;;;;;;1882449;28;7101;-64
2023/01/03 07:02:15;;;;;;;;;;;;;;;;;;1883103;28;8007;-64
2023/01/03 07:03:13;;;;;;;;;;;;;;;;;;1882997;28;7018;-65
2023/01/03 07:04:10;;;;;;;;;;;;;;;;;;1882986;28;8039;-64
2023/01/03 07:05:08;;;;;;;;;;;;;;;;;;1883375;28;7001;-64
2023/01/03 07:06:06;;;;;;;;;;;;;;;;;;1883435;28;7128;-64
2023/01/03 07:07:03;;;;;;;;;;;;;;;;;;1882461;28;7095;-64
2023/01/03 07:08:01;;;;;;;;;;;;;;;;;;1882994;28;7010;-64
2023/01/03 07:08:58;;;;;;;;;;;;;;;;;;1883055;28;7101;-65
2023/01/03 07:09:55;;;;;;;;;;;;;;;;;;1882246;28;7231;-64
2023/01/03 07:10:53;;;;;;;;;;;;;;;;;;1882364;28;7092;-65
2023/01/03 07:11:50;;;;;;;;;;;;;;;;;;1883478;28;7160;-64
2023/01/03 07:14:04;;;;;;;;;;;;;;;;;;1883782;28;7093;-65
2023/01/03 07:15:01;;;;;;;;;;;;;;;;;;1883621;28;7096;-65
2023/01/03 07:16:01;;;;;;;;;;;;;;;;;;1882507;28;7013;-63
2023/01/03 07:16:59;;;;;;;;;;;;;;;;;;1882340;28;7050;-65
2023/01/03 07:17:56;;;;;;;;;;;;;;;;;;1882889;28;7141;-64
2023/01/03 07:18:54;;;;;;;;;;;;;;;;;;1882969;28;7018;-65
2023/01/03 07:19:52;;;;;;;;;;;;;;;;;;1882548;28;7002;-64
2023/01/03 07:20:49;;;;;;;;;;;;;;;;;;1883169;28;7112;-65
2023/01/03 07:21:46;;;;;;;;;;;;;;;;;;1883466;28;7124;-64
2023/01/03 07:22:44;;;;;;;;;;;;;;;;;;1883087;28;7002;-66
2023/01/03 07:23:41;;;;;;;;;;;;;;;;;;1882025;28;7093;-65
2023/01/03 07:24:39;;;;;;;;;;;;;;;;;;1881810;28;7106;-65
2023/01/03 07:25:40;;;;;;;;;;;;;;;;;;1877019;28;7149;-65
2023/01/03 07:26:38;;;;;;;;;;;;;;;;;;1876401;28;7093;-65
2023/01/03 07:27:35;;;;;;;;;;;;;;;;;;1880944;28;7097;-65
2023/01/03 07:28:32;;;;;;;;;;;;;;;;;;1882742;28;8015;-64
2023/01/03 07:29:30;;;;;;;;;;;;;;;;;;1882221;28;7006;-65
2023/01/03 07:30:27;;;;;;;;;;;;;;;;;;1882557;28;8032;-64
2023/01/03 07:31:25;;;;;;;;;;;;;;;;;;1882454;28;7128;-64
2023/01/03 07:32:23;;;;;;;;;;;;;;;;;;1882432;28;8229;-65
2023/01/03 07:33:20;;;;;;;;;;;;;;;;;;1882075;28;7229;-64
2023/01/03 07:34:18;;;;;;;;;;;;;;;;;;1882592;28;8035;-65
2023/01/03 07:35:15;;;;;;;;;;;;;;;;;;1882559;28;7006;-64
2023/01/03 07:36:15;;;;;;;;;;;;;;;;;;1882578;28;8077;-64
2023/01/03 07:37:12;;;;;;;;;;;;;;;;;;1882252;28;7054;-64
2023/01/03 07:38:11;;;;;;;;;;;;;;;;;;1881293;28;8037;-63